Rechercher aéroport 
image banner adimage banner ad
image banner ad

ESNA - Hallviken

Situé à , Sweden

ICAO - ESNA, IATA -

Données fournies par Airmate  

Information générale

Coordonnées: N63°44'18" E15°27'32"
Élévation : 1119 feet MSL.
 
Voir autres Aéroports à Jämtlande län

Données opérationnelles

Accessible au public
Heure actuelle UTC:
Heure actuelle locale:
Météo à : ESNZ - Are Ostersund ( 77 km )
METAR: ESNZ 290050Z AUTO 16007KT 8000 OVC003/// 08/08 Q1015
Voir NOTAMs / SUP AIP / TFR affectant cet aéroport [VIEW]
Fréquences de communication: [VIEW]

Pistes:

Identifiant RWYQFULongueur (ft)Largeur (ft)SurfaceLDA (ft)
14328166ASPH
32328166ASPH

Coordonnées de l'aéroport

Adresse: Sweden

Vue satellite de ESNA